Time;durP1;ratioP1;P1;durP2;ratioP2;P2;SDS_P1;SDS_P2;PMS_P1;PMS_P2;Temp;Humidity;BMP_temperature;BMP_pressure;BME280_temperature;BME280_humidity;BME280_pressure;Samples;Min_cycle;Max_cycle;Signal;HPM_P1;HPM_P2
2023/06/24 00:03:29;;;;;;;3.88;3.38;;;18.30;1.00;;;;;;10372245;28;20229;-78
2023/06/24 00:08:51;;;;;;;4.45;3.70;;;18.20;1.00;;;;;;10358995;28;20301;-78
2023/06/24 00:14:14;;;;;;;7.55;3.58;;;18.20;1.00;;;;;;10390662;28;20205;-78
2023/06/24 00:19:36;;;;;;;4.30;3.80;;;18.20;1.00;;;;;;10399140;28;20563;-77
2023/06/24 00:24:57;;;;;;;11.18;4.20;;;18.10;1.00;;;;;;10394762;28;20209;-78
2023/06/24 00:30:18;;;;;;;5.57;3.22;;;18.00;99.90;;;;;;10392498;28;20387;-78
2023/06/24 00:35:40;;;;;;;5.93;3.72;;;18.00;99.90;;;;;;10411666;28;20492;-77
2023/06/24 00:41:02;;;;;;;6.28;3.67;;;17.90;99.90;;;;;;10367608;28;20292;-78
2023/06/24 00:46:28;;;;;;;4.97;3.42;;;17.90;99.90;;;;;;10357840;28;20218;-78
2023/06/24 00:51:50;;;;;;;4.00;3.65;;;17.90;99.90;;;;;;10356615;28;20213;-77
2023/06/24 00:57:12;;;;;;;4.93;3.63;;;17.80;99.90;;;;;;10357271;28;20298;-77
2023/06/24 01:02:36;;;;;;;6.30;3.92;;;17.90;1.00;;;;;;10362452;28;20372;-77
2023/06/24 01:07:58;;;;;;;6.15;3.53;;;17.90;1.00;;;;;;10356105;28;20221;-77
2023/06/24 01:13:20;;;;;;;4.10;3.28;;;17.80;1.00;;;;;;10357562;28;20302;-78
2023/06/24 01:18:58;;;;;;;4.45;2.95;;;17.80;1.00;;;;;;10392214;28;20204;-77
2023/06/24 01:24:50;;;;;;;4.80;3.30;;;17.80;1.00;;;;;;10381485;28;20621;-77
2023/06/24 01:30:29;;;;;;;4.85;3.00;;;17.70;1.00;;;;;;10373135;28;20392;-77
2023/06/24 01:35:51;;;;;;;4.00;3.40;;;17.60;1.00;;;;;;10341303;28;20246;-77
2023/06/24 01:41:16;;;;;;;4.95;3.60;;;17.60;1.00;;;;;;10355932;28;20268;-77
2023/06/24 01:46:40;;;;;;;3.95;3.08;;;17.60;1.00;;;;;;10368301;28;20470;-78
2023/06/24 01:52:04;;;;;;;4.85;3.63;;;17.50;1.00;;;;;;10354286;28;20198;-78
2023/06/24 01:57:28;;;;;;;6.03;3.80;;;17.50;1.00;;;;;;10354967;28;20373;-78
2023/06/24 02:02:50;;;;;;;4.68;3.40;;;17.50;1.00;;;;;;10354016;28;20259;-78
2023/06/24 02:08:13;;;;;;;4.20;3.28;;;17.50;1.00;;;;;;10354030;28;20232;-78
2023/06/24 02:13:37;;;;;;;3.55;2.78;;;17.50;1.00;;;;;;10353588;28;20228;-78
2023/06/24 02:19:01;;;;;;;3.72;3.10;;;17.50;1.00;;;;;;10358364;28;20210;-79
2023/06/24 02:24:23;;;;;;;4.22;2.92;;;17.50;1.00;;;;;;10380324;28;20511;-79
2023/06/24 02:29:46;;;;;;;4.70;3.35;;;17.40;1.00;;;;;;10377401;28;20434;-78
2023/06/24 02:35:07;;;;;;;3.47;2.90;;;17.20;1.00;;;;;;10407889;28;20192;-77
2023/06/24 02:40:29;;;;;;;4.07;2.63;;;17.20;59.80;;;;;;10388439;28;20289;-79
2023/06/24 02:45:51;;;;;;;3.33;2.70;;;17.20;1.00;;;;;;10348003;28;20228;-79
2023/06/24 02:51:13;;;;;;;4.78;2.90;;;17.20;1.00;;;;;;10375194;28;20572;-79
2023/06/24 02:56:35;;;;;;;4.93;3.15;;;17.10;37.00;;;;;;10360931;28;20440;-78
2023/06/24 03:01:57;;;;;;;4.40;3.35;;;17.10;99.90;;;;;;10347218;28;20296;-79
2023/06/24 03:07:20;;;;;;;6.38;3.08;;;17.00;99.90;;;;;;10346904;28;20233;-79
2023/06/24 03:12:42;;;;;;;3.45;2.63;;;16.90;1.00;;;;;;10346805;28;20231;-78
2023/06/24 03:18:03;;;;;;;5.18;2.97;;;16.90;1.00;;;;;;10398070;28;20240;-78
2023/06/24 03:23:25;;;;;;;3.25;2.80;;;16.90;99.90;;;;;;10394930;28;20449;-79
2023/06/24 03:28:47;;;;;;;3.38;2.97;;;16.90;1.00;;;;;;10400385;28;20300;-79
2023/06/24 03:34:10;;;;;;;6.05;3.17;;;16.90;1.00;;;;;;10396202;28;20289;-78
2023/06/24 03:39:32;;;;;;;3.35;3.03;;;16.80;1.00;;;;;;10361960;28;20508;-78
2023/06/24 03:44:53;;;;;;;5.18;3.45;;;16.80;1.00;;;;;;10360097;28;20194;-78
2023/06/24 03:50:15;;;;;;;3.53;3.22;;;16.80;74.90;;;;;;10375028;28;20211;-79
2023/06/24 03:55:36;;;;;;;5.22;3.20;;;16.80;24.50;;;;;;10345086;28;20496;-78
2023/06/24 04:01:02;;;;;;;5.10;3.38;;;16.80;1.00;;;;;;10372447;28;20519;-77
2023/06/24 04:06:24;;;;;;;11.85;4.10;;;16.90;1.00;;;;;;10388417;28;20255;-79
2023/06/24 04:11:47;;;;;;;4.85;3.50;;;16.80;1.00;;;;;;10398613;28;20243;-78
2023/06/24 04:17:08;;;;;;;8.45;4.10;;;16.80;1.00;;;;;;10381764;28;20204;-78
2023/06/24 04:22:29;;;;;;;8.70;3.90;;;16.80;1.00;;;;;;10392358;28;20202;-79
2023/06/24 04:27:52;;;;;;;4.18;2.97;;;16.80;1.00;;;;;;10412009;28;20266;-78
2023/06/24 04:33:13;;;;;;;3.30;3.00;;;16.90;1.00;;;;;;10393272;28;20208;-79
2023/06/24 04:38:35;;;;;;;5.25;3.03;;;17.00;1.00;;;;;;10398073;28;20196;-78
2023/06/24 04:43:57;;;;;;;6.15;3.38;;;17.00;88.40;;;;;;10397796;28;20246;-77
2023/06/24 04:49:18;;;;;;;4.75;3.30;;;17.10;99.90;;;;;;10367782;28;20460;-78
2023/06/24 04:54:40;;;;;;;4.25;3.40;;;17.20;99.90;;;;;;10357690;28;20504;-79
2023/06/24 05:00:01;;;;;;;8.05;3.80;;;17.30;99.90;;;;;;10357510;28;20194;-78
2023/06/24 05:05:23;;;;;;;6.63;3.85;;;17.40;99.90;;;;;;10368961;28;20538;-78
2023/06/24 05:10:44;;;;;;;6.70;3.80;;;17.50;99.90;;;;;;10356001;28;20273;-78
2023/06/24 05:16:06;;;;;;;5.78;3.45;;;17.60;21.10;;;;;;10359580;28;20198;-78
2023/06/24 05:21:27;;;;;;;4.28;3.72;;;17.80;1.00;;;;;;10390207;28;20288;-78
2023/06/24 05:26:50;;;;;;;4.28;3.55;;;17.90;1.00;;;;;;10396688;28;20236;-78
2023/06/24 05:32:12;;;;;;;4.25;3.53;;;18.10;1.00;;;;;;10366136;28;20297;-78
2023/06/24 05:37:34;;;;;;;4.78;3.80;;;18.10;99.90;;;;;;10396839;28;20223;-79
2023/06/24 05:42:56;;;;;;;6.40;3.55;;;18.30;1.00;;;;;;10393468;28;20201;-79
2023/06/24 05:48:17;;;;;;;4.40;3.42;;;18.30;1.00;;;;;;10373728;28;20225;-79
2023/06/24 05:53:38;;;;;;;4.43;3.47;;;18.50;1.00;;;;;;10390908;28;20189;-80
2023/06/24 05:58:59;;;;;;;7.28;3.25;;;18.60;1.00;;;;;;10366817;28;20205;-79
2023/06/24 06:04:20;;;;;;;7.82;4.38;;;18.80;99.90;;;;;;10355186;28;20241;-77
2023/06/24 06:09:41;;;;;;;5.63;3.88;;;19.00;99.90;;;;;;10367923;28;20226;-77
2023/06/24 06:15:03;;;;;;;7.97;3.47;;;19.10;1.00;;;;;;10340457;28;20354;-78
2023/06/24 06:20:24;;;;;;;5.43;3.45;;;19.30;1.00;;;;;;10388425;28;20205;-77
2023/06/24 06:25:46;;;;;;;6.88;3.80;;;19.50;1.00;;;;;;10381745;28;20229;-77
2023/06/24 06:31:09;;;;;;;3.95;3.30;;;19.60;99.90;;;;;;10394433;28;20216;-77
2023/06/24 06:36:30;;;;;;;5.20;3.20;;;19.90;99.90;;;;;;10394509;28;20511;-79
2023/06/24 06:41:52;;;;;;;3.92;3.25;;;20.10;99.90;;;;;;10390214;28;20251;-78
2023/06/24 06:47:16;;;;;;;4.32;2.65;;;20.50;86.40;;;;;;10394118;28;20223;-77
2023/06/24 06:52:38;;;;;;;6.53;3.35;;;21.10;1.00;;;;;;10393522;28;20193;-79
2023/06/24 06:57:59;;;;;;;3.10;2.75;;;21.80;1.00;;;;;;10354494;28;20220;-79
2023/06/24 07:03:21;;;;;;;5.55;3.15;;;22.40;1.00;;;;;;10353786;28;20414;-78
2023/06/24 07:08:42;;;;;;;3.55;2.95;;;22.80;1.00;;;;;;10359209;28;20225;-78
2023/06/24 07:14:04;;;;;;;6.13;3.38;;;23.40;1.00;;;;;;10393382;28;20263;-80
2023/06/24 07:19:25;;;;;;;5.72;2.60;;;24.00;1.00;;;;;;10384423;28;20222;-79
2023/06/24 07:24:47;;;;;;;2.90;2.60;;;24.60;99.90;;;;;;10359873;28;20209;-79
2023/06/24 07:30:08;;;;;;;5.95;2.75;;;24.90;99.90;;;;;;10393679;28;20224;-81
2023/06/24 07:35:31;;;;;;;5.07;3.00;;;25.10;99.90;;;;;;10401242;28;20243;-81
2023/06/24 07:40:52;;;;;;;6.75;3.00;;;25.60;99.90;;;;;;10362966;28;20293;-79
2023/06/24 07:46:15;;;;;;;3.53;2.80;;;25.70;99.90;;;;;;10352062;28;20549;-78
2023/06/24 07:51:36;;;;;;;7.72;3.20;;;25.80;99.90;;;;;;10359805;28;20194;-78
2023/06/24 07:56:57;;;;;;;3.47;2.95;;;25.60;99.90;;;;;;10372297;28;20424;-79
2023/06/24 08:02:18;;;;;;;3.80;2.58;;;25.50;99.90;;;;;;10358400;28;20249;-80
2023/06/24 08:07:39;;;;;;;9.88;3.75;;;25.20;99.90;;;;;;10358771;28;20252;-79
2023/06/24 08:13:01;;;;;;;6.75;3.28;;;25.20;99.90;;;;;;10358505;28;20190;-79
2023/06/24 08:18:22;;;;;;;3.65;2.92;;;25.50;99.90;;;;;;10375657;28;20272;-79
2023/06/24 08:23:43;;;;;;;5.60;2.90;;;26.00;99.90;;;;;;10377483;28;20205;-77
2023/06/24 08:29:06;;;;;;;3.75;2.55;;;26.60;99.90;;;;;;10383769;28;20224;-80
2023/06/24 08:34:27;;;;;;;7.28;3.25;;;27.10;99.90;;;;;;10397531;28;20427;-79
2023/06/24 08:39:48;;;;;;;3.75;2.53;;;27.10;99.90;;;;;;10366141;28;20533;-79
2023/06/24 08:45:10;;;;;;;6.10;3.95;;;26.80;99.90;;;;;;10357878;28;20268;-79
2023/06/24 08:50:36;;;;;;;6.47;3.50;;;26.60;99.90;;;;;;10357631;28;20488;-78
2023/06/24 08:55:58;;;;;;;5.57;2.92;;;26.40;99.90;;;;;;10356462;28;20257;-80
2023/06/24 09:01:19;;;;;;;14.15;3.25;;;26.50;99.90;;;;;;10356911;28;20281;-79
2023/06/24 09:06:42;;;;;;;8.55;6.03;;;26.70;99.90;;;;;;10370207;28;20305;-79
2023/06/24 09:12:04;;;;;;;15.35;3.50;;;26.90;99.90;;;;;;10356656;28;20232;-80
2023/06/24 09:17:25;;;;;;;4.25;3.20;;;27.10;99.90;;;;;;10366138;28;20199;-78
2023/06/24 09:22:48;;;;;;;5.40;3.42;;;27.50;99.90;;;;;;10381830;28;20204;-81
2023/06/24 09:28:08;;;;;;;3.75;2.47;;;27.40;99.90;;;;;;10396320;28;20224;-79
2023/06/24 09:33:31;;;;;;;4.03;2.90;;;27.30;99.90;;;;;;10396966;28;20189;-79
2023/06/24 09:38:52;;;;;;;7.00;5.60;;;27.50;99.90;;;;;;10357014;28;20436;-80
2023/06/24 09:44:13;;;;;;;5.30;3.45;;;28.20;99.90;;;;;;10355078;28;20412;-78
2023/06/24 09:49:34;;;;;;;4.47;2.92;;;28.10;99.90;;;;;;10354576;28;20233;-77
2023/06/24 09:54:59;;;;;;;7.93;3.10;;;28.20;99.90;;;;;;10354851;28;20190;-78
2023/06/24 10:00:22;;;;;;;4.38;2.90;;;28.60;99.90;;;;;;10355312;28;20190;-78
2023/06/24 10:05:43;;;;;;;5.05;2.78;;;29.10;99.90;;;;;;10353680;28;20624;-81
2023/06/24 10:11:04;;;;;;;4.32;3.33;;;29.50;99.90;;;;;;10353896;28;20209;-78
2023/06/24 10:16:26;;;;;;;4.60;3.30;;;29.60;99.90;;;;;;10354718;28;20481;-81
2023/06/24 10:21:51;;;;;;;6.70;3.17;;;29.90;99.90;;;;;;10382670;28;20272;-81
2023/06/24 10:27:37;;;;;;;5.72;3.10;;;30.50;99.90;;;;;;10367719;28;20225;-80
2023/06/24 10:33:00;;;;;;;7.15;3.33;;;30.70;99.90;;;;;;10390228;28;20190;-78
2023/06/24 10:38:21;;;;;;;5.70;3.72;;;30.60;99.90;;;;;;10378567;28;20193;-79
2023/06/24 10:43:42;;;;;;;6.15;3.10;;;30.40;99.90;;;;;;10393904;28;20280;-78
2023/06/24 10:49:03;;;;;;;4.03;3.05;;;30.40;99.90;;;;;;10378749;28;20283;-79
2023/06/24 10:54:25;;;;;;;4.57;3.10;;;30.20;99.90;;;;;;10369944;28;20197;-78
2023/06/24 10:59:48;;;;;;;3.47;2.75;;;30.00;99.90;;;;;;10393523;28;20203;-78
2023/06/24 11:05:09;;;;;;;7.10;3.20;;;29.60;99.90;;;;;;10371347;28;20559;-79
2023/06/24 11:10:30;;;;;;;5.07;3.20;;;29.00;99.90;;;;;;10361387;28;20426;-78
2023/06/24 11:15:53;;;;;;;3.72;2.83;;;28.20;99.90;;;;;;10361237;28;20398;-78
2023/06/24 11:21:14;;;;;;;6.65;3.20;;;27.80;99.90;;;;;;10411115;28;20252;-78
2023/06/24 11:26:36;;;;;;;9.70;3.60;;;28.30;99.90;;;;;;10370683;28;20469;-78
2023/06/24 11:31:57;;;;;;;5.55;3.33;;;28.00;99.90;;;;;;10385492;28;20233;-78
2023/06/24 11:37:19;;;;;;;4.90;3.25;;;27.60;99.90;;;;;;10388369;28;20393;-78
2023/06/24 11:42:44;;;;;;;7.47;3.30;;;27.50;99.90;;;;;;10400877;28;20193;-78
2023/06/24 11:48:06;;;;;;;3.53;3.20;;;27.60;99.90;;;;;;10394962;28;20615;-77
2023/06/24 11:53:44;;;;;;;3.60;2.88;;;28.10;99.90;;;;;;10399598;28;20192;-77
2023/06/24 11:59:06;;;;;;;12.02;3.80;;;28.90;99.90;;;;;;10391292;28;20209;-78
2023/06/24 12:04:29;;;;;;;3.95;3.03;;;29.10;99.90;;;;;;10344705;28;20241;-78
2023/06/24 12:09:50;;;;;;;6.47;3.42;;;29.40;99.90;;;;;;10372277;28;20248;-78
2023/06/24 12:15:11;;;;;;;4.38;3.40;;;29.70;99.90;;;;;;10357277;28;20214;-81
2023/06/24 12:20:34;;;;;;;4.07;3.50;;;28.90;99.90;;;;;;10387690;28;20221;-79
2023/06/24 12:25:57;;;;;;;5.13;3.00;;;28.50;99.90;;;;;;10398098;28;20471;-80
2023/06/24 12:31:19;;;;;;;3.97;3.25;;;28.60;99.90;;;;;;10357063;28;20220;-78
2023/06/24 12:36:40;;;;;;;4.07;3.42;;;28.90;99.90;;;;;;10358501;28;20477;-78
2023/06/24 12:42:01;;;;;;;5.15;3.63;;;28.80;99.90;;;;;;10356815;28;20493;-78
2023/06/24 12:47:22;;;;;;;3.72;2.72;;;28.50;99.90;;;;;;10357743;28;20296;-78
2023/06/24 12:52:43;;;;;;;4.07;2.83;;;28.50;99.90;;;;;;10371003;28;20380;-78
2023/06/24 12:58:04;;;;;;;6.10;3.05;;;28.60;99.90;;;;;;10391265;28;20193;-78
2023/06/24 13:03:25;;;;;;;6.13;3.00;;;28.70;99.90;;;;;;10370169;28;20229;-78
2023/06/24 13:08:47;;;;;;;5.97;3.40;;;28.90;99.90;;;;;;10356127;28;20236;-78
2023/06/24 13:14:09;;;;;;;7.35;3.85;;;28.90;99.90;;;;;;10355095;28;20202;-78
2023/06/24 13:19:32;;;;;;;9.75;3.92;;;29.10;99.90;;;;;;10368740;28;20197;-78
2023/06/24 13:24:53;;;;;;;8.07;3.38;;;29.10;99.90;;;;;;10386253;28;20197;-79
2023/06/24 13:30:15;;;;;;;6.25;3.60;;;29.00;99.90;;;;;;10395345;28;20531;-78
2023/06/24 13:35:36;;;;;;;4.57;3.42;;;29.10;99.90;;;;;;10364750;28;20414;-78
2023/06/24 13:40:57;;;;;;;4.82;3.05;;;28.70;99.90;;;;;;10389231;28;20190;-77
2023/06/24 13:46:19;;;;;;;6.05;3.88;;;28.10;99.90;;;;;;10380837;28;20207;-77
2023/06/24 13:51:40;;;;;;;10.10;6.28;;;28.00;99.90;;;;;;10396160;28;20203;-78
2023/06/24 13:57:02;;;;;;;12.40;4.68;;;28.00;99.90;;;;;;10379036;28;20261;-78
2023/06/24 14:02:23;;;;;;;7.75;4.40;;;27.70;99.90;;;;;;10373302;28;20562;-78
2023/06/24 14:07:44;;;;;;;7.50;4.80;;;27.60;99.90;;;;;;10395697;28;20300;-78
2023/06/24 14:13:06;;;;;;;4.55;4.03;;;27.10;99.90;;;;;;10371855;28;20202;-78
2023/06/24 14:18:31;;;;;;;7.38;3.72;;;26.70;99.90;;;;;;10358198;28;20466;-78
2023/06/24 14:23:53;;;;;;;5.80;3.58;;;26.90;99.90;;;;;;10383021;28;20197;-78
2023/06/24 14:29:18;;;;;;;8.07;4.03;;;27.10;99.90;;;;;;10354682;28;20261;-79
2023/06/24 14:34:39;;;;;;;5.05;3.33;;;27.10;99.90;;;;;;10357352;28;20185;-78
2023/06/24 14:40:00;;;;;;;6.15;3.28;;;26.70;99.90;;;;;;10400222;28;20479;-78
2023/06/24 14:45:22;;;;;;;3.65;3.22;;;26.80;99.90;;;;;;10362731;28;20197;-78
2023/06/24 14:50:43;;;;;;;5.78;3.63;;;26.70;99.90;;;;;;10361612;28;20217;-78
2023/06/24 14:56:05;;;;;;;3.45;3.08;;;26.70;99.90;;;;;;10361954;28;20205;-78
2023/06/24 15:01:26;;;;;;;4.80;3.05;;;26.80;99.90;;;;;;10362027;28;20193;-78
2023/06/24 15:06:48;;;;;;;5.25;3.60;;;26.90;99.90;;;;;;10360295;28;20223;-78
2023/06/24 15:12:10;;;;;;;4.93;3.05;;;26.90;99.90;;;;;;10360724;28;20488;-78
2023/06/24 15:17:34;;;;;;;5.80;3.72;;;26.90;99.90;;;;;;10361755;28;20197;-78
2023/06/24 15:22:55;;;;;;;5.32;3.10;;;26.60;99.90;;;;;;10387105;28;20259;-78
2023/06/24 15:28:17;;;;;;;5.47;3.38;;;26.50;99.90;;;;;;10361278;28;20233;-78
2023/06/24 15:33:38;;;;;;;4.60;3.53;;;26.30;99.90;;;;;;10360749;28;20257;-77
2023/06/24 15:38:59;;;;;;;4.20;3.30;;;26.20;99.90;;;;;;10393916;28;20492;-77
2023/06/24 15:44:20;;;;;;;4.60;3.60;;;26.00;99.90;;;;;;10400959;28;20396;-77
2023/06/24 15:49:43;;;;;;;5.00;3.50;;;25.90;99.90;;;;;;10399637;28;20523;-77
2023/06/24 15:55:05;;;;;;;5.75;3.30;;;25.90;99.90;;;;;;10383453;28;20229;-77
2023/06/24 16:00:26;;;;;;;9.85;3.95;;;25.70;99.90;;;;;;10360038;28;20224;-77
2023/06/24 16:05:47;;;;;;;3.45;3.10;;;25.60;99.90;;;;;;10358053;28;20540;-78
2023/06/24 16:11:09;;;;;;;6.38;3.08;;;25.40;99.90;;;;;;10359192;28;20225;-77
2023/06/24 16:16:30;;;;;;;3.85;2.90;;;25.20;99.90;;;;;;10359169;28;20389;-77
2023/06/24 16:21:52;;;;;;;5.38;2.88;;;25.10;99.90;;;;;;10377256;28;20406;-77
2023/06/24 16:27:14;;;;;;;3.75;3.22;;;25.10;99.90;;;;;;10363492;28;20225;-77
2023/06/24 16:32:35;;;;;;;6.20;3.33;;;25.00;99.90;;;;;;10358143;28;20194;-77
2023/06/24 16:37:57;;;;;;;3.50;3.17;;;25.00;99.90;;;;;;10382020;28;20477;-79
2023/06/24 16:43:18;;;;;;;3.30;2.80;;;24.90;99.90;;;;;;10358327;28;20197;-77
2023/06/24 16:48:40;;;;;;;5.00;2.83;;;24.90;99.90;;;;;;10356379;28;20232;-77
2023/06/24 16:54:01;;;;;;;6.97;3.10;;;24.80;99.90;;;;;;10357354;28;20268;-77
2023/06/24 16:59:22;;;;;;;5.00;2.90;;;24.70;99.90;;;;;;10356507;28;20208;-77
2023/06/24 17:04:44;;;;;;;4.13;2.50;;;;;;;;;;10355682;28;20241;-77
2023/06/24 17:10:05;;;;;;;3.95;2.65;;;24.40;99.90;;;;;;10356770;28;20269;-77
2023/06/24 17:15:26;;;;;;;12.27;2.92;;;24.40;99.90;;;;;;10357002;28;20241;-77
2023/06/24 17:20:48;;;;;;;5.63;2.88;;;24.30;99.90;;;;;;10375056;28;20288;-77
2023/06/24 17:26:09;;;;;;;3.55;2.70;;;24.20;99.90;;;;;;10355576;28;20205;-77
2023/06/24 17:31:30;;;;;;;5.20;2.70;;;;;;;;;;10356034;28;20271;-78
2023/06/24 17:36:52;;;;;;;4.85;3.00;;;23.80;99.90;;;;;;10361663;28;20205;-78
2023/06/24 17:42:13;;;;;;;3.40;2.75;;;23.70;99.90;;;;;;10355082;28;20277;-77
2023/06/24 17:47:34;;;;;;;3.92;2.90;;;23.50;99.90;;;;;;10355380;28;20223;-79
2023/06/24 17:52:56;;;;;;;4.53;2.88;;;;;;;;;;10354384;28;20630;-78
2023/06/24 17:58:17;;;;;;;5.32;3.00;;;;;;;;;;10354476;28;20197;-79
2023/06/24 18:03:38;;;;;;;6.95;2.75;;;23.10;99.90;;;;;;10354825;28;20460;-77
2023/06/24 18:09:00;;;;;;;3.05;2.60;;;22.90;99.90;;;;;;10353588;28;20229;-77
2023/06/24 18:14:21;;;;;;;3.38;2.55;;;22.70;99.90;;;;;;10353285;28;20217;-77
2023/06/24 18:19:44;;;;;;;2.85;2.30;;;;;;;;;;10365531;28;20196;-77
2023/06/24 18:25:06;;;;;;;2.78;2.38;;;22.40;99.90;;;;;;10378210;28;20270;-78
2023/06/24 18:30:28;;;;;;;4.47;2.28;;;22.30;99.90;;;;;;10370697;28;20242;-77
2023/06/24 18:35:49;;;;;;;5.03;2.75;;;22.10;99.90;;;;;;10385512;28;20285;-77
2023/06/24 18:41:10;;;;;;;3.03;2.63;;;21.90;99.90;;;;;;10373950;28;20385;-78
2023/06/24 18:46:31;;;;;;;4.70;3.10;;;21.80;99.90;;;;;;10386506;28;20205;-76
2023/06/24 18:51:53;;;;;;;4.03;3.35;;;21.70;99.90;;;;;;10382102;28;20202;-77
2023/06/24 18:57:14;;;;;;;4.03;3.30;;;21.60;99.90;;;;;;10393695;28;20228;-77
2023/06/24 19:02:36;;;;;;;3.97;3.40;;;21.50;99.90;;;;;;10389394;28;20301;-78
2023/06/24 19:07:57;;;;;;;5.15;3.58;;;21.30;99.90;;;;;;10393616;28;20240;-79
2023/06/24 19:13:18;;;;;;;6.28;3.60;;;21.10;99.90;;;;;;10391369;28;20588;-79
2023/06/24 19:18:40;;;;;;;4.50;3.78;;;21.00;99.90;;;;;;10358967;28;20203;-76
2023/06/24 19:24:01;;;;;;;8.63;4.00;;;20.90;99.90;;;;;;10404181;28;20276;-77
2023/06/24 19:29:22;;;;;;;4.72;4.10;;;20.70;99.90;;;;;;10396358;28;20225;-78
2023/06/24 19:34:43;;;;;;;3.70;3.38;;;20.50;99.90;;;;;;10401444;28;20193;-76
2023/06/24 19:40:06;;;;;;;3.47;3.17;;;20.50;99.90;;;;;;10414317;28;20197;-76
2023/06/24 19:45:27;;;;;;;8.73;4.28;;;20.40;99.90;;;;;;10388499;28;20208;-77
2023/06/24 19:50:49;;;;;;;6.13;4.55;;;20.20;99.90;;;;;;10359016;28;20232;-76
2023/06/24 19:56:10;;;;;;;5.43;4.53;;;20.20;99.90;;;;;;10359993;28;20221;-76
2023/06/24 20:01:31;;;;;;;5.45;4.43;;;20.10;99.90;;;;;;10376219;28;20210;-77
2023/06/24 20:06:53;;;;;;;4.55;4.15;;;20.00;99.90;;;;;;10359741;28;20194;-76
2023/06/24 20:12:14;;;;;;;6.88;4.95;;;20.00;99.90;;;;;;10376744;28;20496;-76
2023/06/24 20:17:35;;;;;;;4.90;4.40;;;19.90;99.90;;;;;;10358214;28;20432;-76
2023/06/24 20:22:56;;;;;;;6.13;4.50;;;19.80;99.90;;;;;;10359210;28;20256;-76
2023/06/24 20:28:18;;;;;;;5.68;5.03;;;19.70;99.90;;;;;;10358078;28;20226;-77
2023/06/24 20:33:39;;;;;;;5.15;4.30;;;19.70;99.90;;;;;;10370953;28;20218;-76
2023/06/24 20:39:00;;;;;;;6.53;5.22;;;19.70;1.00;;;;;;10358146;28;20194;-75
2023/06/24 20:44:22;;;;;;;6.35;4.97;;;19.60;1.00;;;;;;10363523;28;20201;-78
2023/06/24 20:49:43;;;;;;;7.20;5.72;;;19.50;1.00;;;;;;10398211;28;20227;-76
2023/06/24 20:55:05;;;;;;;8.25;5.47;;;19.50;1.00;;;;;;10397985;28;20189;-79
2023/06/24 21:00:27;;;;;;;8.00;5.18;;;19.40;1.00;;;;;;10362123;28;20555;-76
2023/06/24 21:05:48;;;;;;;8.05;5.88;;;19.30;1.00;;;;;;10355831;28;20412;-76
2023/06/24 21:11:09;;;;;;;6.80;5.63;;;19.20;1.00;;;;;;10356961;28;20221;-78
2023/06/24 21:16:31;;;;;;;8.38;5.90;;;19.20;1.00;;;;;;10357268;28;20222;-77
2023/06/24 21:21:52;;;;;;;8.10;6.05;;;19.10;1.00;;;;;;10386787;28;20193;-78
2023/06/24 21:27:13;;;;;;;7.80;6.15;;;19.00;11.40;;;;;;10384089;28;20205;-77
2023/06/24 21:32:34;;;;;;;8.73;6.15;;;18.90;43.00;;;;;;10356415;28;20300;-78
2023/06/24 21:37:56;;;;;;;8.88;5.78;;;18.70;99.90;;;;;;10355947;28;20193;-75
2023/06/24 21:43:17;;;;;;;6.55;5.88;;;18.70;99.90;;;;;;10355607;28;20220;-77
2023/06/24 21:48:39;;;;;;;8.23;5.65;;;18.60;99.90;;;;;;10394814;28;20248;-77
2023/06/24 21:54:00;;;;;;;7.95;6.20;;;18.60;99.90;;;;;;10358154;28;20284;-78
2023/06/24 21:59:23;;;;;;;7.05;5.72;;;18.50;99.90;;;;;;10355490;28;20221;-75
2023/06/24 22:04:44;;;;;;;6.55;5.65;;;18.50;99.90;;;;;;10355091;28;20297;-78
2023/06/24 22:10:06;;;;;;;6.35;5.70;;;18.40;99.90;;;;;;10354789;28;20237;-77
2023/06/24 22:15:29;;;;;;;8.57;7.22;;;18.30;1.00;;;;;;10355090;28;20206;-77
2023/06/24 22:20:50;;;;;;;7.13;6.43;;;18.20;1.00;;;;;;10377270;28;20189;-77
2023/06/24 22:26:11;;;;;;;7.68;6.25;;;18.10;1.00;;;;;;10369153;28;20202;-77
2023/06/24 22:31:32;;;;;;;7.78;6.22;;;18.10;1.00;;;;;;10353833;28;20221;-77
2023/06/24 22:36:53;;;;;;;6.90;6.20;;;18.00;1.00;;;;;;10354432;28;20492;-77
2023/06/24 22:42:15;;;;;;;6.88;5.68;;;17.90;1.00;;;;;;10353507;28;20496;-78
2023/06/24 22:47:36;;;;;;;6.63;5.88;;;17.90;1.00;;;;;;10386336;28;20209;-78
2023/06/24 22:52:57;;;;;;;11.13;6.28;;;17.80;1.00;;;;;;10361045;28;20539;-79
2023/06/24 22:58:19;;;;;;;9.85;6.30;;;17.70;1.00;;;;;;10358515;28;20190;-78
2023/06/24 23:03:41;;;;;;;9.18;7.22;;;17.70;1.00;;;;;;10360924;28;20447;-79
2023/06/24 23:09:02;;;;;;;8.88;6.85;;;17.60;1.00;;;;;;10364606;28;20368;-80
2023/06/24 23:14:24;;;;;;;11.07;7.35;;;17.60;1.00;;;;;;10361870;28;20200;-78
2023/06/24 23:19:46;;;;;;;9.57;7.35;;;17.50;3.50;;;;;;10375013;28;20212;-77
2023/06/24 23:25:08;;;;;;;9.95;7.93;;;17.40;51.30;;;;;;10376870;28;20247;-78
2023/06/24 23:30:35;;;;;;;10.80;7.50;;;17.40;1.00;;;;;;10360934;28;20465;-78
2023/06/24 23:35:57;;;;;;;8.75;6.47;;;17.30;99.90;;;;;;10359889;28;20249;-78
2023/06/24 23:41:18;;;;;;;8.15;6.20;;;17.40;91.90;;;;;;10359376;28;20213;-78
2023/06/24 23:46:40;;;;;;;10.95;7.05;;;17.40;94.40;;;;;;10386072;28;20189;-77
2023/06/24 23:52:01;;;;;;;10.05;6.45;;;17.30;99.90;;;;;;10388999;28;20226;-78
2023/06/24 23:57:24;;;;;;;7.47;6.03;;;17.30;99.90;;;;;;10359380;28;20481;-78
